Terminal Aerodrome Forecast
Issued by NWS

Home | Current Version | Previous Version | Text Only | Print | Product List | Glossary Off
Versions: 1 2 3 4 5 6 7 8 9 10 11 12 13 14 15 16 17 18 19 20

000
FTUS43 KMPX 290520
TAFAXN
TAF
KAXN 290520Z 2906/3006 10007KT P6SM SCT040 OVC060
     FM291000 05004KT P6SM SCT060 OVC100
     FM291500 07008KT P6SM BKN120=

USA.gov is the U.S. government's official web portal to all federal, state and local government web resources and services.